sensor_id;sensor_type;location;lat;lon;timestamp;temperature;humidity
21001;DHT22;10658;50.920;12.238;2022-07-29T00:02:28;16.90;99.90
21001;DHT22;10658;50.920;12.238;2022-07-29T00:06:30;16.90;99.90
21001;DHT22;10658;50.920;12.238;2022-07-29T00:10:31;16.90;99.90
21001;DHT22;10658;50.920;12.238;2022-07-29T00:14:32;16.90;99.90
21001;DHT22;10658;50.920;12.238;2022-07-29T00:18:33;16.90;99.90
21001;DHT22;10658;50.920;12.238;2022-07-29T00:22:38;16.90;99.90
21001;DHT22;10658;50.920;12.238;2022-07-29T00:26:39;16.80;99.90
21001;DHT22;10658;50.920;12.238;2022-07-29T00:30:40;16.80;99.90
21001;DHT22;10658;50.920;12.238;2022-07-29T00:34:43;16.80;99.90
21001;DHT22;10658;50.920;12.238;2022-07-29T00:39:03;16.70;99.90
21001;DHT22;10658;50.920;12.238;2022-07-29T00:43:05;16.60;99.90
21001;DHT22;10658;50.920;12.238;2022-07-29T00:47:07;16.60;99.90
21001;DHT22;10658;50.920;12.238;2022-07-29T00:51:08;16.50;99.90
21001;DHT22;10658;50.920;12.238;2022-07-29T00:55:13;16.40;99.90
21001;DHT22;10658;50.920;12.238;2022-07-29T00:59:15;16.40;99.90
21001;DHT22;10658;50.920;12.238;2022-07-29T01:03:16;16.40;99.90
21001;DHT22;10658;50.920;12.238;2022-07-29T01:07:18;16.40;99.90
21001;DHT22;10658;50.920;12.238;2022-07-29T01:11:20;16.40;99.90
21001;DHT22;10658;50.920;12.238;2022-07-29T01:15:22;16.50;99.90
21001;DHT22;10658;50.920;12.238;2022-07-29T01:32:11;16.40;99.90
21001;DHT22;10658;50.920;12.238;2022-07-29T01:41:09;16.30;99.90
21001;DHT22;10658;50.920;12.238;2022-07-29T01:45:21;16.10;99.90
21001;DHT22;10658;50.920;12.238;2022-07-29T01:49:28;15.90;99.90
21001;DHT22;10658;50.920;12.238;2022-07-29T01:53:35;15.80;99.90
21001;DHT22;10658;50.920;12.238;2022-07-29T01:57:42;15.90;99.90
21001;DHT22;10658;50.920;12.238;2022-07-29T02:01:45;15.90;99.90
21001;DHT22;10658;50.920;12.238;2022-07-29T02:05:47;16.10;99.90
21001;DHT22;10658;50.920;12.238;2022-07-29T02:09:51;16.10;99.90
21001;DHT22;10658;50.920;12.238;2022-07-29T02:13:56;16.20;99.90
21001;DHT22;10658;50.920;12.238;2022-07-29T02:18:18;16.20;99.90
21001;DHT22;10658;50.920;12.238;2022-07-29T02:22:21;16.20;99.90
21001;DHT22;10658;50.920;12.238;2022-07-29T02:26:24;16.20;99.90
21001;DHT22;10658;50.920;12.238;2022-07-29T02:30:27;15.90;99.90
21001;DHT22;10658;50.920;12.238;2022-07-29T02:34:30;15.60;99.90
21001;DHT22;10658;50.920;12.238;2022-07-29T02:38:32;15.50;99.90
21001;DHT22;10658;50.920;12.238;2022-07-29T02:42:53;15.50;99.90
21001;DHT22;10658;50.920;12.238;2022-07-29T02:47:15;15.60;99.90
21001;DHT22;10658;50.920;12.238;2022-07-29T02:51:27;15.70;99.90
21001;DHT22;10658;50.920;12.238;2022-07-29T02:55:57;15.70;99.90
21001;DHT22;10658;50.920;12.238;2022-07-29T03:00:05;15.60;99.90
21001;DHT22;10658;50.920;12.238;2022-07-29T03:04:09;15.70;99.90
21001;DHT22;10658;50.920;12.238;2022-07-29T03:08:11;15.60;99.90
21001;DHT22;10658;50.920;12.238;2022-07-29T03:12:14;15.60;99.90
21001;DHT22;10658;50.920;12.238;2022-07-29T03:16:16;15.70;99.90
21001;DHT22;10658;50.920;12.238;2022-07-29T03:20:18;15.70;99.90
21001;DHT22;10658;50.920;12.238;2022-07-29T03:24:32;15.80;99.90
21001;DHT22;10658;50.920;12.238;2022-07-29T03:28:34;15.90;99.90
21001;DHT22;10658;50.920;12.238;2022-07-29T03:32:36;15.90;99.90
21001;DHT22;10658;50.920;12.238;2022-07-29T03:36:37;15.90;99.90
21001;DHT22;10658;50.920;12.238;2022-07-29T03:40:53;15.90;99.90
21001;DHT22;10658;50.920;12.238;2022-07-29T03:44:56;15.80;99.90
21001;DHT22;10658;50.920;12.238;2022-07-29T03:49:00;15.90;99.90
21001;DHT22;10658;50.920;12.238;2022-07-29T03:53:02;15.90;99.90
21001;DHT22;10658;50.920;12.238;2022-07-29T03:57:06;15.80;99.90
21001;DHT22;10658;50.920;12.238;2022-07-29T04:01:07;15.70;99.90
21001;DHT22;10658;50.920;12.238;2022-07-29T04:05:12;15.70;99.90
21001;DHT22;10658;50.920;12.238;2022-07-29T04:09:14;15.60;99.90
21001;DHT22;10658;50.920;12.238;2022-07-29T04:13:16;15.60;99.90
21001;DHT22;10658;50.920;12.238;2022-07-29T04:17:17;15.70;99.90
21001;DHT22;10658;50.920;12.238;2022-07-29T04:21:18;15.90;99.90
21001;DHT22;10658;50.920;12.238;2022-07-29T04:25:20;16.00;99.90
21001;DHT22;10658;50.920;12.238;2022-07-29T04:29:21;16.10;99.90
21001;DHT22;10658;50.920;12.238;2022-07-29T04:33:22;16.20;99.90
21001;DHT22;10658;50.920;12.238;2022-07-29T04:37:23;16.40;99.90
21001;DHT22;10658;50.920;12.238;2022-07-29T04:41:24;16.40;99.90
21001;DHT22;10658;50.920;12.238;2022-07-29T04:45:26;16.60;99.90
21001;DHT22;10658;50.920;12.238;2022-07-29T04:49:28;16.60;99.90
21001;DHT22;10658;50.920;12.238;2022-07-29T04:53:29;16.90;99.90
21001;DHT22;10658;50.920;12.238;2022-07-29T04:57:30;17.00;99.90
21001;DHT22;10658;50.920;12.238;2022-07-29T05:01:31;17.10;99.90
21001;DHT22;10658;50.920;12.238;2022-07-29T05:05:33;17.20;99.90
21001;DHT22;10658;50.920;12.238;2022-07-29T05:09:34;17.40;99.90
21001;DHT22;10658;50.920;12.238;2022-07-29T05:13:35;17.60;99.90
21001;DHT22;10658;50.920;12.238;2022-07-29T05:17:37;17.70;99.90
21001;DHT22;10658;50.920;12.238;2022-07-29T05:21:38;17.80;99.90
21001;DHT22;10658;50.920;12.238;2022-07-29T05:25:39;17.80;99.90
21001;DHT22;10658;50.920;12.238;2022-07-29T05:29:40;17.80;99.90
21001;DHT22;10658;50.920;12.238;2022-07-29T05:33:42;18.00;99.90
21001;DHT22;10658;50.920;12.238;2022-07-29T05:37:43;18.20;99.90
21001;DHT22;10658;50.920;12.238;2022-07-29T05:41:44;18.40;99.90
21001;DHT22;10658;50.920;12.238;2022-07-29T05:45:45;18.40;99.90
21001;DHT22;10658;50.920;12.238;2022-07-29T05:49:46;18.50;99.90
21001;DHT22;10658;50.920;12.238;2022-07-29T05:53:47;18.70;99.90
21001;DHT22;10658;50.920;12.238;2022-07-29T05:57:48;18.70;99.90
21001;DHT22;10658;50.920;12.238;2022-07-29T06:01:49;18.50;99.90
21001;DHT22;10658;50.920;12.238;2022-07-29T06:05:51;18.50;99.90
21001;DHT22;10658;50.920;12.238;2022-07-29T06:09:52;18.50;99.90
21001;DHT22;10658;50.920;12.238;2022-07-29T06:13:53;18.70;99.90
21001;DHT22;10658;50.920;12.238;2022-07-29T06:17:55;18.80;99.90
21001;DHT22;10658;50.920;12.238;2022-07-29T06:21:56;18.80;99.90
21001;DHT22;10658;50.920;12.238;2022-07-29T06:25:57;18.90;99.90
21001;DHT22;10658;50.920;12.238;2022-07-29T06:29:58;19.00;99.90
21001;DHT22;10658;50.920;12.238;2022-07-29T06:33:59;18.90;99.90
21001;DHT22;10658;50.920;12.238;2022-07-29T06:38:02;18.90;99.90
21001;DHT22;10658;50.920;12.238;2022-07-29T06:42:04;18.70;99.90
21001;DHT22;10658;50.920;12.238;2022-07-29T06:46:07;18.60;99.90
21001;DHT22;10658;50.920;12.238;2022-07-29T06:50:10;18.40;99.90
21001;DHT22;10658;50.920;12.238;2022-07-29T06:54:13;18.30;99.90
21001;DHT22;10658;50.920;12.238;2022-07-29T06:58:15;18.30;99.90
21001;DHT22;10658;50.920;12.238;2022-07-29T07:02:29;18.40;99.90
21001;DHT22;10658;50.920;12.238;2022-07-29T07:06:30;18.50;99.90
21001;DHT22;10658;50.920;12.238;2022-07-29T07:10:32;18.70;99.90
21001;DHT22;10658;50.920;12.238;2022-07-29T07:14:33;18.90;99.90
21001;DHT22;10658;50.920;12.238;2022-07-29T07:18:34;19.30;99.90
21001;DHT22;10658;50.920;12.238;2022-07-29T07:22:35;20.00;99.90
21001;DHT22;10658;50.920;12.238;2022-07-29T07:26:37;20.50;99.90
21001;DHT22;10658;50.920;12.238;2022-07-29T07:30:40;21.20;99.90
21001;DHT22;10658;50.920;12.238;2022-07-29T07:34:42;22.10;99.90
21001;DHT22;10658;50.920;12.238;2022-07-29T07:38:44;22.70;99.90
21001;DHT22;10658;50.920;12.238;2022-07-29T07:42:45;23.20;99.90
21001;DHT22;10658;50.920;12.238;2022-07-29T07:46:46;23.70;99.90
21001;DHT22;10658;50.920;12.238;2022-07-29T07:50:47;24.20;99.90
21001;DHT22;10658;50.920;12.238;2022-07-29T07:54:50;24.40;99.90
21001;DHT22;10658;50.920;12.238;2022-07-29T07:58:52;24.10;99.90
21001;DHT22;10658;50.920;12.238;2022-07-29T08:02:53;24.50;99.90
21001;DHT22;10658;50.920;12.238;2022-07-29T08:06:56;25.40;99.90
21001;DHT22;10658;50.920;12.238;2022-07-29T08:10:58;25.90;99.90
21001;DHT22;10658;50.920;12.238;2022-07-29T08:15:03;26.10;99.90
21001;DHT22;10658;50.920;12.238;2022-07-29T08:19:05;26.40;99.90
21001;DHT22;10658;50.920;12.238;2022-07-29T08:23:07;26.80;99.90
21001;DHT22;10658;50.920;12.238;2022-07-29T08:27:12;26.80;99.90
21001;DHT22;10658;50.920;12.238;2022-07-29T08:31:14;26.80;99.90
21001;DHT22;10658;50.920;12.238;2022-07-29T08:35:16;27.30;99.90
21001;DHT22;10658;50.920;12.238;2022-07-29T08:39:17;27.40;99.90
21001;DHT22;10658;50.920;12.238;2022-07-29T08:43:19;27.50;99.90
21001;DHT22;10658;50.920;12.238;2022-07-29T08:47:20;27.60;99.90
21001;DHT22;10658;50.920;12.238;2022-07-29T08:51:22;27.50;99.90
21001;DHT22;10658;50.920;12.238;2022-07-29T08:55:23;27.20;99.90
21001;DHT22;10658;50.920;12.238;2022-07-29T08:59:26;27.00;99.90
21001;DHT22;10658;50.920;12.238;2022-07-29T09:03:31;27.10;99.90
21001;DHT22;10658;50.920;12.238;2022-07-29T09:07:33;26.80;99.90
21001;DHT22;10658;50.920;12.238;2022-07-29T09:11:34;26.20;99.90
21001;DHT22;10658;50.920;12.238;2022-07-29T09:15:35;26.20;99.90
21001;DHT22;10658;50.920;12.238;2022-07-29T09:19:37;26.80;99.90
21001;DHT22;10658;50.920;12.238;2022-07-29T09:23:38;28.00;99.90
21001;DHT22;10658;50.920;12.238;2022-07-29T09:27:49;28.10;99.90
21001;DHT22;10658;50.920;12.238;2022-07-29T09:31:52;28.00;99.90
21001;DHT22;10658;50.920;12.238;2022-07-29T09:36:03;27.50;99.90
21001;DHT22;10658;50.920;12.238;2022-07-29T09:40:19;27.30;99.90
21001;DHT22;10658;50.920;12.238;2022-07-29T09:44:22;27.00;99.90
21001;DHT22;10658;50.920;12.238;2022-07-29T09:48:24;28.10;99.90
21001;DHT22;10658;50.920;12.238;2022-07-29T09:52:30;28.80;99.90
21001;DHT22;10658;50.920;12.238;2022-07-29T09:56:41;29.10;99.90
21001;DHT22;10658;50.920;12.238;2022-07-29T10:00:43;29.00;99.90
21001;DHT22;10658;50.920;12.238;2022-07-29T10:04:44;28.60;99.90
21001;DHT22;10658;50.920;12.238;2022-07-29T10:08:46;28.50;99.90
21001;DHT22;10658;50.920;12.238;2022-07-29T10:12:50;28.70;99.90
21001;DHT22;10658;50.920;12.238;2022-07-29T10:16:52;28.10;99.90
21001;DHT22;10658;50.920;12.238;2022-07-29T10:20:55;27.60;99.90
21001;DHT22;10658;50.920;12.238;2022-07-29T10:24:56;27.00;99.90
21001;DHT22;10658;50.920;12.238;2022-07-29T10:28:57;27.20;99.90
21001;DHT22;10658;50.920;12.238;2022-07-29T10:33:22;27.50;99.90
21001;DHT22;10658;50.920;12.238;2022-07-29T10:42:07;27.40;99.90
21001;DHT22;10658;50.920;12.238;2022-07-29T10:46:11;27.50;99.90
21001;DHT22;10658;50.920;12.238;2022-07-29T10:50:13;27.30;99.90
21001;DHT22;10658;50.920;12.238;2022-07-29T10:54:14;28.10;99.90
21001;DHT22;10658;50.920;12.238;2022-07-29T10:58:18;29.00;99.90
21001;DHT22;10658;50.920;12.238;2022-07-29T11:15:56;29.70;99.90
21001;DHT22;10658;50.920;12.238;2022-07-29T11:24:33;30.60;99.90
21001;DHT22;10658;50.920;12.238;2022-07-29T11:28:42;30.00;99.90
21001;DHT22;10658;50.920;12.238;2022-07-29T11:32:49;30.30;99.90
21001;DHT22;10658;50.920;12.238;2022-07-29T11:41:20;31.30;99.90
21001;DHT22;10658;50.920;12.238;2022-07-29T11:45:24;31.40;99.90
21001;DHT22;10658;50.920;12.238;2022-07-29T11:49:29;31.50;99.90
21001;DHT22;10658;50.920;12.238;2022-07-29T11:53:30;31.50;99.90
21001;DHT22;10658;50.920;12.238;2022-07-29T11:57:31;31.70;99.90
21001;DHT22;10658;50.920;12.238;2022-07-29T12:01:35;31.50;99.90
21001;DHT22;10658;50.920;12.238;2022-07-29T12:05:43;31.70;99.90
21001;DHT22;10658;50.920;12.238;2022-07-29T12:09:50;31.50;99.90
21001;DHT22;10658;50.920;12.238;2022-07-29T12:13:52;31.80;99.90
21001;DHT22;10658;50.920;12.238;2022-07-29T12:17:54;32.00;99.90
21001;DHT22;10658;50.920;12.238;2022-07-29T12:21:55;31.90;99.90
21001;DHT22;10658;50.920;12.238;2022-07-29T12:25:59;31.90;99.90
21001;DHT22;10658;50.920;12.238;2022-07-29T12:30:03;31.50;99.90
21001;DHT22;10658;50.920;12.238;2022-07-29T12:34:05;31.80;99.90
21001;DHT22;10658;50.920;12.238;2022-07-29T12:38:09;32.80;99.90
21001;DHT22;10658;50.920;12.238;2022-07-29T12:42:14;32.70;99.90
21001;DHT22;10658;50.920;12.238;2022-07-29T12:46:16;32.20;99.90
21001;DHT22;10658;50.920;12.238;2022-07-29T12:50:17;31.60;99.90
21001;DHT22;10658;50.920;12.238;2022-07-29T12:54:19;30.90;99.90
21001;DHT22;10658;50.920;12.238;2022-07-29T12:58:34;30.50;99.90
21001;DHT22;10658;50.920;12.238;2022-07-29T13:02:38;30.40;99.90
21001;DHT22;10658;50.920;12.238;2022-07-29T13:06:40;30.30;99.90
21001;DHT22;10658;50.920;12.238;2022-07-29T13:10:42;29.90;99.90
21001;DHT22;10658;50.920;12.238;2022-07-29T13:14:46;29.50;99.90
21001;DHT22;10658;50.920;12.238;2022-07-29T13:18:47;29.60;99.90
21001;DHT22;10658;50.920;12.238;2022-07-29T13:22:48;29.60;99.90
21001;DHT22;10658;50.920;12.238;2022-07-29T13:26:49;29.50;99.90
21001;DHT22;10658;50.920;12.238;2022-07-29T13:30:52;29.20;99.90
21001;DHT22;10658;50.920;12.238;2022-07-29T13:34:59;29.00;99.90
21001;DHT22;10658;50.920;12.238;2022-07-29T13:39:01;28.80;99.90
21001;DHT22;10658;50.920;12.238;2022-07-29T13:43:03;28.60;99.90
21001;DHT22;10658;50.920;12.238;2022-07-29T13:47:04;28.40;99.90
21001;DHT22;10658;50.920;12.238;2022-07-29T13:51:06;28.40;99.90
21001;DHT22;10658;50.920;12.238;2022-07-29T13:55:07;28.20;99.90
21001;DHT22;10658;50.920;12.238;2022-07-29T13:59:09;28.10;99.90
21001;DHT22;10658;50.920;12.238;2022-07-29T14:03:10;28.00;99.90
21001;DHT22;10658;50.920;12.238;2022-07-29T14:07:11;28.00;99.90
21001;DHT22;10658;50.920;12.238;2022-07-29T14:11:13;28.00;99.90
21001;DHT22;10658;50.920;12.238;2022-07-29T14:15:15;28.00;99.90
21001;DHT22;10658;50.920;12.238;2022-07-29T14:19:17;27.40;99.90
21001;DHT22;10658;50.920;12.238;2022-07-29T14:23:18;26.50;99.90
21001;DHT22;10658;50.920;12.238;2022-07-29T14:27:19;25.80;99.90
21001;DHT22;10658;50.920;12.238;2022-07-29T14:31:20;25.30;99.90
21001;DHT22;10658;50.920;12.238;2022-07-29T14:35:21;24.90;99.90
21001;DHT22;10658;50.920;12.238;2022-07-29T14:39:23;25.00;99.90
21001;DHT22;10658;50.920;12.238;2022-07-29T14:43:24;25.10;99.90
21001;DHT22;10658;50.920;12.238;2022-07-29T14:47:25;25.00;99.90
21001;DHT22;10658;50.920;12.238;2022-07-29T14:51:26;24.80;99.90
21001;DHT22;10658;50.920;12.238;2022-07-29T14:55:28;24.70;99.90
21001;DHT22;10658;50.920;12.238;2022-07-29T14:59:29;24.70;99.90
21001;DHT22;10658;50.920;12.238;2022-07-29T15:03:30;24.70;99.90
21001;DHT22;10658;50.920;12.238;2022-07-29T15:07:32;24.60;99.90
21001;DHT22;10658;50.920;12.238;2022-07-29T15:11:33;24.30;99.90
21001;DHT22;10658;50.920;12.238;2022-07-29T15:15:35;24.10;99.90
21001;DHT22;10658;50.920;12.238;2022-07-29T15:19:36;24.00;99.90
21001;DHT22;10658;50.920;12.238;2022-07-29T15:23:37;24.00;99.90
21001;DHT22;10658;50.920;12.238;2022-07-29T15:27:39;24.70;99.90
21001;DHT22;10658;50.920;12.238;2022-07-29T15:31:40;25.80;99.90
21001;DHT22;10658;50.920;12.238;2022-07-29T15:35:41;26.70;99.90
21001;DHT22;10658;50.920;12.238;2022-07-29T15:39:42;27.50;99.90
21001;DHT22;10658;50.920;12.238;2022-07-29T15:43:44;27.60;99.90
21001;DHT22;10658;50.920;12.238;2022-07-29T15:47:47;27.70;99.90
21001;DHT22;10658;50.920;12.238;2022-07-29T15:51:48;27.20;99.90
21001;DHT22;10658;50.920;12.238;2022-07-29T15:55:50;26.50;99.90
21001;DHT22;10658;50.920;12.238;2022-07-29T15:59:51;26.00;99.90
21001;DHT22;10658;50.920;12.238;2022-07-29T16:03:57;25.70;99.90
21001;DHT22;10658;50.920;12.238;2022-07-29T16:07:58;25.50;99.90
21001;DHT22;10658;50.920;12.238;2022-07-29T16:12:00;25.70;99.90
21001;DHT22;10658;50.920;12.238;2022-07-29T16:16:01;25.70;99.90
21001;DHT22;10658;50.920;12.238;2022-07-29T16:20:02;25.60;99.90
21001;DHT22;10658;50.920;12.238;2022-07-29T16:24:06;25.60;99.90
21001;DHT22;10658;50.920;12.238;2022-07-29T16:28:08;25.50;99.90
21001;DHT22;10658;50.920;12.238;2022-07-29T16:32:09;25.50;99.90
21001;DHT22;10658;50.920;12.238;2022-07-29T16:36:10;25.50;99.90
21001;DHT22;10658;50.920;12.238;2022-07-29T16:40:12;25.50;99.90
21001;DHT22;10658;50.920;12.238;2022-07-29T16:44:12;25.50;99.90
21001;DHT22;10658;50.920;12.238;2022-07-29T16:48:15;25.50;99.90
21001;DHT22;10658;50.920;12.238;2022-07-29T16:52:16;25.40;99.90
21001;DHT22;10658;50.920;12.238;2022-07-29T16:56:18;25.50;99.90
21001;DHT22;10658;50.920;12.238;2022-07-29T17:00:20;25.40;99.90
21001;DHT22;10658;50.920;12.238;2022-07-29T17:04:21;25.50;99.90
21001;DHT22;10658;50.920;12.238;2022-07-29T17:08:23;25.30;99.90
21001;DHT22;10658;50.920;12.238;2022-07-29T17:12:25;25.30;99.90
21001;DHT22;10658;50.920;12.238;2022-07-29T17:16:28;25.30;99.90
21001;DHT22;10658;50.920;12.238;2022-07-29T17:20:29;24.90;99.90
21001;DHT22;10658;50.920;12.238;2022-07-29T17:24:32;24.90;99.90
21001;DHT22;10658;50.920;12.238;2022-07-29T17:28:33;24.90;99.90
21001;DHT22;10658;50.920;12.238;2022-07-29T17:32:35;24.90;99.90
21001;DHT22;10658;50.920;12.238;2022-07-29T17:36:38;24.80;99.90
21001;DHT22;10658;50.920;12.238;2022-07-29T17:40:39;24.70;99.90
21001;DHT22;10658;50.920;12.238;2022-07-29T17:44:41;24.50;99.90
21001;DHT22;10658;50.920;12.238;2022-07-29T17:48:43;24.40;99.90
21001;DHT22;10658;50.920;12.238;2022-07-29T17:52:45;24.40;99.90
21001;DHT22;10658;50.920;12.238;2022-07-29T17:56:46;24.30;99.90
21001;DHT22;10658;50.920;12.238;2022-07-29T18:00:48;24.30;99.90
21001;DHT22;10658;50.920;12.238;2022-07-29T18:04:50;24.20;99.90
21001;DHT22;10658;50.920;12.238;2022-07-29T18:08:52;24.10;99.90
21001;DHT22;10658;50.920;12.238;2022-07-29T18:12:54;24.00;99.90
21001;DHT22;10658;50.920;12.238;2022-07-29T18:16:56;24.00;99.90
21001;DHT22;10658;50.920;12.238;2022-07-29T18:20:57;23.90;99.90
21001;DHT22;10658;50.920;12.238;2022-07-29T18:24:58;23.80;99.90
21001;DHT22;10658;50.920;12.238;2022-07-29T18:29:00;23.70;99.90
21001;DHT22;10658;50.920;12.238;2022-07-29T18:33:00;23.50;99.90
21001;DHT22;10658;50.920;12.238;2022-07-29T18:37:03;23.10;99.90
21001;DHT22;10658;50.920;12.238;2022-07-29T18:41:05;22.80;99.90
21001;DHT22;10658;50.920;12.238;2022-07-29T18:45:07;22.70;99.90
21001;DHT22;10658;50.920;12.238;2022-07-29T18:49:09;22.80;99.90
21001;DHT22;10658;50.920;12.238;2022-07-29T18:53:10;22.80;99.90
21001;DHT22;10658;50.920;12.238;2022-07-29T18:57:11;22.60;99.90
21001;DHT22;10658;50.920;12.238;2022-07-29T19:01:12;22.60;99.90
21001;DHT22;10658;50.920;12.238;2022-07-29T19:05:14;22.60;99.90
21001;DHT22;10658;50.920;12.238;2022-07-29T19:09:15;22.60;99.90
21001;DHT22;10658;50.920;12.238;2022-07-29T19:13:17;22.60;99.90
21001;DHT22;10658;50.920;12.238;2022-07-29T19:17:19;22.60;99.90
21001;DHT22;10658;50.920;12.238;2022-07-29T19:21:20;22.50;99.90
21001;DHT22;10658;50.920;12.238;2022-07-29T19:25:22;22.50;99.90
21001;DHT22;10658;50.920;12.238;2022-07-29T19:29:24;22.40;99.90
21001;DHT22;10658;50.920;12.238;2022-07-29T19:33:26;22.20;99.90
21001;DHT22;10658;50.920;12.238;2022-07-29T19:37:27;21.80;99.90
21001;DHT22;10658;50.920;12.238;2022-07-29T19:41:28;21.50;99.90
21001;DHT22;10658;50.920;12.238;2022-07-29T19:45:31;21.10;99.90
21001;DHT22;10658;50.920;12.238;2022-07-29T19:49:32;21.20;99.90
21001;DHT22;10658;50.920;12.238;2022-07-29T19:53:36;21.30;99.90
21001;DHT22;10658;50.920;12.238;2022-07-29T19:57:38;21.60;99.90
21001;DHT22;10658;50.920;12.238;2022-07-29T20:01:40;21.80;99.90
21001;DHT22;10658;50.920;12.238;2022-07-29T20:05:41;22.00;99.90
21001;DHT22;10658;50.920;12.238;2022-07-29T20:09:42;22.20;99.90
21001;DHT22;10658;50.920;12.238;2022-07-29T20:13:45;22.20;99.90
21001;DHT22;10658;50.920;12.238;2022-07-29T20:17:47;22.20;99.90
21001;DHT22;10658;50.920;12.238;2022-07-29T20:21:48;22.30;99.90
21001;DHT22;10658;50.920;12.238;2022-07-29T20:25:50;22.30;99.90
21001;DHT22;10658;50.920;12.238;2022-07-29T20:29:51;22.30;99.90
21001;DHT22;10658;50.920;12.238;2022-07-29T20:33:53;22.30;99.90
21001;DHT22;10658;50.920;12.238;2022-07-29T20:37:54;22.30;99.90
21001;DHT22;10658;50.920;12.238;2022-07-29T20:41:56;22.30;99.90
21001;DHT22;10658;50.920;12.238;2022-07-29T20:45:58;22.10;99.90
21001;DHT22;10658;50.920;12.238;2022-07-29T20:50:00;22.10;99.90
21001;DHT22;10658;50.920;12.238;2022-07-29T20:54:01;22.10;99.90
21001;DHT22;10658;50.920;12.238;2022-07-29T20:58:03;22.00;99.90
21001;DHT22;10658;50.920;12.238;2022-07-29T21:02:05;22.10;99.90
21001;DHT22;10658;50.920;12.238;2022-07-29T21:06:07;21.80;99.90
21001;DHT22;10658;50.920;12.238;2022-07-29T21:10:10;21.10;99.90
21001;DHT22;10658;50.920;12.238;2022-07-29T21:14:12;20.60;99.90
21001;DHT22;10658;50.920;12.238;2022-07-29T21:18:36;20.50;99.90
21001;DHT22;10658;50.920;12.238;2022-07-29T21:22:37;20.40;99.90
21001;DHT22;10658;50.920;12.238;2022-07-29T21:26:38;19.90;99.90
21001;DHT22;10658;50.920;12.238;2022-07-29T21:30:39;19.60;99.90
21001;DHT22;10658;50.920;12.238;2022-07-29T21:34:40;19.50;99.90
21001;DHT22;10658;50.920;12.238;2022-07-29T21:38:42;19.50;99.90
21001;DHT22;10658;50.920;12.238;2022-07-29T21:42:42;19.60;99.90
21001;DHT22;10658;50.920;12.238;2022-07-29T21:46:44;19.40;99.90
21001;DHT22;10658;50.920;12.238;2022-07-29T21:50:46;19.40;99.90
21001;DHT22;10658;50.920;12.238;2022-07-29T21:54:48;19.40;99.90
21001;DHT22;10658;50.920;12.238;2022-07-29T22:03:07;19.40;99.90
21001;DHT22;10658;50.920;12.238;2022-07-29T22:07:09;19.10;99.90
21001;DHT22;10658;50.920;12.238;2022-07-29T22:11:11;18.90;99.90
21001;DHT22;10658;50.920;12.238;2022-07-29T22:15:12;18.70;99.90
21001;DHT22;10658;50.920;12.238;2022-07-29T22:19:14;18.80;99.90
21001;DHT22;10658;50.920;12.238;2022-07-29T22:23:14;18.90;99.90
21001;DHT22;10658;50.920;12.238;2022-07-29T22:27:17;19.00;99.90
21001;DHT22;10658;50.920;12.238;2022-07-29T22:31:18;19.20;99.90
21001;DHT22;10658;50.920;12.238;2022-07-29T22:35:20;19.20;99.90
21001;DHT22;10658;50.920;12.238;2022-07-29T22:39:21;19.00;99.90
21001;DHT22;10658;50.920;12.238;2022-07-29T22:43:23;18.90;99.90
21001;DHT22;10658;50.920;12.238;2022-07-29T22:47:24;19.10;99.90
21001;DHT22;10658;50.920;12.238;2022-07-29T22:51:26;19.10;99.90
21001;DHT22;10658;50.920;12.238;2022-07-29T22:55:28;19.00;99.90
21001;DHT22;10658;50.920;12.238;2022-07-29T22:59:30;19.10;99.90
21001;DHT22;10658;50.920;12.238;2022-07-29T23:03:31;19.10;99.90
21001;DHT22;10658;50.920;12.238;2022-07-29T23:07:33;19.20;99.90
21001;DHT22;10658;50.920;12.238;2022-07-29T23:11:34;19.10;99.90
21001;DHT22;10658;50.920;12.238;2022-07-29T23:15:35;19.30;99.90
21001;DHT22;10658;50.920;12.238;2022-07-29T23:19:38;19.60;99.90
21001;DHT22;10658;50.920;12.238;2022-07-29T23:23:40;19.80;99.90
21001;DHT22;10658;50.920;12.238;2022-07-29T23:27:41;19.90;99.90
21001;DHT22;10658;50.920;12.238;2022-07-29T23:31:42;19.80;99.90
21001;DHT22;10658;50.920;12.238;2022-07-29T23:35:44;19.90;99.90
21001;DHT22;10658;50.920;12.238;2022-07-29T23:39:46;20.00;99.90
21001;DHT22;10658;50.920;12.238;2022-07-29T23:43:48;20.10;99.90
21001;DHT22;10658;50.920;12.238;2022-07-29T23:47:49;20.20;99.90
21001;DHT22;10658;50.920;12.238;2022-07-29T23:51:51;20.10;99.90
21001;DHT22;10658;50.920;12.238;2022-07-29T23:55:52;20.10;99.90
21001;DHT22;10658;50.920;12.238;2022-07-29T23:59:54;20.20;99.90
